contacte
inicio
- ACTUALIZADO a las 10:09
Cámara en vivo
A 5 metros de altura
Dirección Noreste
Datos del día de Ayer
24/4/20
Time         Wind Dir   Wind Spd  Wind Gust     Hum In   Humidity    Temp In       Temp  Raw Barom   Tot Rain
                    °      km/hr      km/hr          %          %         °C         °C         mb         mm
0:00              253          2          5         59         76       23.6       17.2    1011.76     202.20
0:20              261          0          3         59         76       23.6       16.8    1011.76     202.20
0:40              276          0          2         59         77       23.5       16.4    1011.79     202.20
1:00              277          0          2         59         78       23.5       16.2    1011.89     202.20
1:20              277          0          2         59         78       23.5       16.1    1011.72     202.20
1:40              279          0          3         58         78       23.4       15.9    1011.69     202.20
2:00              285          0          3         58         80       23.4       15.4    1011.72     202.20
2:20              285          2          2         58         80       23.4       15.2    1011.69     202.20
2:40              302          0          3         58         79       23.2       14.9    1011.42     202.20
3:00              302          0          3         58         79       23.3       14.9    1011.39     202.20
3:20              302          0          3         58         80       23.2       14.7    1011.35     202.20
3:40              313          0          3         58         80       23.1       14.5    1011.18     202.20
4:00              334          3          3         58         79       23.1       14.4    1010.95     202.20
4:20              355          6          6         58         78       22.9       14.7    1010.71     202.20
4:40              355          2          6         57         78       22.8       14.6    1010.54     202.20
5:00              355          3          8         57         78       22.8       14.6    1010.37     202.20
5:20              355          2          6         57         79       22.8       14.6    1010.41     202.20
5:40              355          0          3         57         81       22.7       14.2    1010.17     202.20
6:00              355          0          6         57         82       22.6       13.9    1010.03     202.20
6:20              355          0          3         57         82       22.6       13.8    1009.93     202.20
6:40              360          2          3         57         82       22.4       13.9    1009.87     202.20
7:00               17          2          5         57         81       22.4       13.9    1009.87     202.20
7:20                5          3          6         57         81       22.4       13.8    1009.76     202.20
7:40               17          3          5         57         81       22.3       13.7    1009.73     202.20
8:00                9          3          6         57         82       22.1       13.5    1009.80     202.20
8:20               28          2          8         56         82       21.9       13.6    1009.73     202.20
8:40               29          3          5         55         82       21.7       13.7    1009.70     202.20
9:00               32          2          5         56         82       21.5       14.3    1009.76     202.20
9:20               63          2          5         57         79       21.5       15.3    1009.90     202.20
9:40               65          3          6         56         74       22.1       16.4    1009.80     202.20
10:00              68          3          8         55         71       22.4       17.1    1009.80     202.20
10:20              90          2          6         55         71       22.7       17.8    1009.97     202.20
10:40              75          5         13         54         68       22.9       18.4    1009.80     202.20
11:00              49          2         13         54         65       23.3       18.8    1009.97     202.20
11:20              64          2          8         53         64       23.3       19.0    1009.90     202.20
11:40              84          2          6         53         63       23.3       19.3    1009.80     202.20
12:00              84          2          6         53         64       23.2       19.4    1009.63     202.20
12:20              96          3          6         54         64       23.1       19.8    1009.49     202.20
12:40              72          0          3         55         63       23.1       20.1    1009.56     202.20
13:00              77          0          5         55         61       23.2       20.7    1009.09     202.20
13:20             311          6         10         53         56       23.5       21.8    1008.82     202.20
13:40              46          0          6         52         54       23.7       22.3    1008.51     202.20
14:00              12          3          6         51         51       23.9       22.6    1008.34     202.20
14:20              38          5          5         51         51       23.9       23.1    1008.18     202.20
14:40              71          2          6         51         49       24.0       23.6    1007.97     202.20
15:00              70          0          6         51         48       24.2       23.8    1007.77     202.20
15:20              67          0          3         52         48       24.3       24.3    1007.80     202.20
15:40             334          0          3         51         47       24.4       24.8    1007.80     202.20
16:00             355          0          6         51         47       24.7       25.3    1007.63     202.20
16:20             196          0          6         52         48       24.9       24.8    1007.53     202.20
16:40             164          2          6         53         47       25.0       24.7    1007.30     202.20
17:00             195          0          8         52         47       25.1       24.6    1006.96     202.20
17:20             165          2          6         51         49       25.2       24.6    1006.52     202.20
17:40             164          0          3         51         53       25.1       24.2    1006.28     202.20
18:00             206          0          3         50         50       25.0       24.2    1006.08     202.20
18:20             272          0          3         50         52       25.0       23.9    1006.05     202.20
18:40             295          2          3         50         52       25.0       23.9    1005.81     202.20
19:00             296          0          3         51         50       24.9       23.9    1005.98     202.20
19:20             294          0          2         52         58       24.9       23.6    1005.78     202.20
19:40             217          2          5         53         55       25.0       23.5    1005.94     202.20
20:00             214          2          5         53         59       25.1       22.8    1005.84     202.20
20:20             205          2          3         54         62       25.1       22.4    1005.98     202.20
20:40             215          2          5         55         67       25.1       21.6    1006.01     202.20
0:00              180          3         10         66         91       23.5       17.7    1010.34     299.80
0:20              219          6         11         66         91       23.4       17.7    1010.37     299.80
0:40              220          2          6         67         91       23.4       17.7    1010.24     299.80
1:00              242          0          8         66         91       23.4       17.5    1010.10     299.80
1:20              241          0          5         66         91       23.4       17.4    1010.07     299.80
1:40              240          0          5         66         92       23.4       17.4    1010.34     300.00
2:00              240          2          5         67         93       23.4       17.3    1010.14     300.40
2:20              240          2          5         67         93       23.4       17.3    1009.32     300.40
2:40              241          2          5         67         93       23.3       17.0    1009.83     300.40
3:00              119          8         10         67         94       23.3       16.9    1009.76     300.40
3:20              159          2         10         67         94       23.3       17.0    1009.87     300.40
3:40              159          2          8         67         94       23.3       17.1    1009.76     300.40
4:00              159          6          8         67         94       23.3       16.9    1009.70     300.40
4:20              162          0          8         67         94       23.2       16.8    1009.39     300.40
4:40              161          3          8         67         94       23.2       16.9    1009.05     300.60
5:00              186          5         19         67         94       23.2       16.9    1009.19     300.60
5:20              194          2         18         67         94       23.1       16.7    1009.16     300.60
5:40              206          5          8         67         94       23.1       16.3    1009.16     300.60
6:00              206          6         16         67         94       23.1       16.2    1008.99     300.60
6:20              200          2         10         67         94       23.1       16.0    1009.05     300.60
6:40              190          5         13         66         94       23.1       16.1    1009.12     300.60
7:00              184          5         13         66         94       23.1       16.2    1009.26     300.60
7:20              184          0         11         66         94       22.9       16.2    1009.26     300.60
7:40              182          0          5         66         94       22.9       16.1    1009.29     300.60
8:00              182          2          6         66         94       22.9       16.1    1009.36     300.60
8:20              182          3          6         66         95       22.9       16.0    1009.39     300.60
8:40              182          2          8         66         94       22.9       15.8    1009.56     300.60
9:00              182          0          8         66         95       22.9       15.7    1009.73     300.60
9:20              182          0          2         66         95       22.9       15.8    1010.14     300.60
9:40              182          2          5         66         95       22.9       15.8    1010.47     300.60
10:00             182          0          5         66         95       22.9       15.9    1010.71     300.60
10:20             182          2          5         66         95       22.8       16.0    1011.22     300.60
10:40             182          3          5         66         95       22.8       16.2    1011.35     300.60
11:00             171          0          8         66         95       22.9       16.6    1011.56     300.60
11:20             150          6         11         66         95       22.9       16.6    1011.66     300.60
11:40             162          3         13         66         95       22.9       17.1    1011.72     300.60
12:00             108          2         13         67         94       23.1       17.3    1011.69     300.60
12:20             107          8          8         67         94       23.1       17.8    1011.49     300.60
12:40             166         10         14         67         92       23.1       18.3    1011.39     300.80
13:00             267          3         14         68         91       23.1       17.8    1011.62     305.80
13:20             316         10         13         68         93       23.1       17.3    1011.49     313.60
13:40             306          0          8         68         93       23.1       16.7    1011.39     314.40
14:00             309          3          8         68         94       23.1       16.8    1011.35     314.80
14:20             265         10         11         68         95       23.1       17.1    1011.49     315.20
14:40             325          6         14         68         94       23.1       16.9    1011.18     315.60
15:00             327          2         14         68         94       23.1       16.9    1011.05     315.60
15:20             327          6          6         68         95       23.1       17.6    1010.91     315.60
15:40             336          2          8         68         94       23.1       17.9    1010.88     315.60
16:00             327          2         11         68         93       23.1       18.1    1010.81     315.60
16:20             327          2          8         68         92       23.2       18.6    1010.85     315.60
16:40             202          8         19         68         85       23.2       19.4    1010.88     315.60
17:00             221         11         19         68         79       23.2       20.3    1010.85     315.60
17:20             219         10         24         67         71       23.2       20.9    1011.25     315.60
17:40             240         11         19         66         71       23.2       20.9    1011.32     315.60
18:00             218          0         19         65         71       23.2       20.8    1011.56     315.60
18:20             244         11         18         65         73       23.2       20.4    1011.86     315.60
18:40             229          5         14         66         75       23.3       20.1    1012.10     315.60
19:00             211          0         14         67         76       23.2       19.8    1012.23     315.60
19:20             216          0         13         69         79       23.1       19.3    1012.71     315.60
19:40             211          5         13         70         81       23.1       18.7    1012.71     315.60
20:00             217          2         13         70         83       23.1       18.3    1013.21     315.60
20:20             216          0          8         70         84       23.1       17.8    1013.82     315.60
20:40             217          2          2         71         85       22.9       17.2    1014.09     315.60
21:00             225          2          5         71         86       22.9       16.9    1014.40     315.60
21:20             227          0          5         71         86       22.9       16.8    1014.80     315.60
21:40             227          0          5         71         87       22.9       16.6    1015.17     315.60
22:00             227          3          6         71         88       22.9       16.4    1015.17     315.60
22:20             227          0          5         71         89       22.8       16.1    1015.31     315.60
22:40             227          2          6         71         90       22.8       15.8    1015.61     315.60
23:00             224          2          8         71         90       22.8       15.6    1015.78     315.60
23:20             236          3          8         70         90       22.8       15.4    1015.85     315.60
23:40             245          2          5         70         90       22.8       15.3    1016.25     315.60
Miembro de: